Time;durP1;ratioP1;P1;durP2;ratioP2;P2;SDS_P1;SDS_P2;PMS_P1;PMS_P2;Temp;Humidity;BMP_temperature;BMP_pressure;BME280_temperature;BME280_humidity;BME280_pressure;Samples;Min_cycle;Max_cycle;Signal;HPM_P1;HPM_P2
2022/09/22 01:05:37;;;;;;;0.50;0.50;;;9.20;99.90;;;;;;5066842;28;20380;-71
2022/09/22 01:08:03;;;;;;;0.63;0.63;;;9.20;99.90;;;;;;5065496;28;20071;-71
2022/09/22 01:10:28;;;;;;;2.13;1.63;;;9.20;99.90;;;;;;5065706;28;20155;-72
2022/09/22 01:13:37;;;;;;;1.43;1.33;;;9.20;99.90;;;;;;5066923;28;20104;-71
2022/09/22 01:16:23;;;;;;;2.75;1.80;;;9.20;99.90;;;;;;5066328;28;20128;-70
2022/09/22 01:18:58;;;;;;;0.70;0.70;;;9.30;99.90;;;;;;5066591;28;20037;-73
2022/09/22 01:21:35;;;;;;;0.38;0.38;;;9.30;99.90;;;;;;5066666;28;20082;-71
2022/09/22 01:24:35;;;;;;;0.30;0.30;;;9.30;99.90;;;;;;5066473;28;20029;-71
2022/09/22 01:27:26;;;;;;;0.40;0.40;;;9.40;99.90;;;;;;5065063;28;20067;-71
2022/09/22 01:30:18;;;;;;;0.40;0.40;;;9.40;99.90;;;;;;5066755;28;20115;-72
2022/09/22 01:33:11;;;;;;;0.57;0.57;;;9.40;99.90;;;;;;5045077;28;20040;-71
2022/09/22 01:36:07;;;;;;;0.40;0.40;;;9.40;99.90;;;;;;5046928;28;20098;-70
2022/09/22 01:39:00;;;;;;;1.20;1.15;;;9.40;99.90;;;;;;5046441;28;20155;-71
2022/09/22 01:41:41;;;;;;;0.70;0.70;;;9.50;99.90;;;;;;5046477;28;20425;-71
2022/09/22 01:44:33;;;;;;;0.95;0.95;;;9.40;99.90;;;;;;5046448;28;20026;-71
2022/09/22 01:47:20;;;;;;;0.60;0.60;;;9.50;99.90;;;;;;5042957;28;20444;-71
2022/09/22 01:50:09;;;;;;;1.95;1.40;;;9.50;99.90;;;;;;5046235;28;20033;-70
2022/09/22 01:52:37;;;;;;;0.30;0.30;;;9.60;99.90;;;;;;5046102;28;20429;-71
2022/09/22 01:55:29;;;;;;;0.30;0.30;;;9.50;99.90;;;;;;5046412;28;20315;-71
2022/09/22 01:58:19;;;;;;;0.30;0.30;;;9.50;99.90;;;;;;5045955;28;20033;-71
2022/09/22 02:00:59;;;;;;;0.30;0.30;;;9.50;99.90;;;;;;5045851;28;20033;-70
2022/09/22 02:03:37;;;;;;;0.93;0.93;;;9.50;99.90;;;;;;5045557;28;20159;-70
2022/09/22 02:06:11;;;;;;;1.08;1.02;;;9.40;99.90;;;;;;5044404;28;20025;-70
2022/09/22 02:08:45;;;;;;;0.40;0.40;;;9.40;99.90;;;;;;5044572;28;20507;-70
2022/09/22 02:11:14;;;;;;;0.35;0.35;;;9.40;99.90;;;;;;5045865;28;20030;-71
2022/09/22 02:13:41;;;;;;;0.60;0.60;;;9.40;99.90;;;;;;5045738;28;20068;-71
2022/09/22 02:16:08;;;;;;;0.70;0.70;;;9.30;99.90;;;;;;5037243;28;20029;-71
2022/09/22 02:18:49;;;;;;;3.08;1.90;;;9.30;99.90;;;;;;5032397;28;20393;-71
2022/09/22 02:21:15;;;;;;;0.82;0.82;;;9.30;99.90;;;;;;5032351;28;20017;-71
2022/09/22 02:23:43;;;;;;;0.90;0.90;;;9.20;99.90;;;;;;5031081;28;20037;-69
2022/09/22 02:26:11;;;;;;;1.20;1.10;;;9.20;99.90;;;;;;5032243;28;20030;-69
2022/09/22 02:28:40;;;;;;;0.40;0.40;;;9.20;99.90;;;;;;5032177;28;20036;-71
2022/09/22 02:31:08;;;;;;;1.65;1.45;;;9.20;99.90;;;;;;5032005;28;20393;-70
2022/09/22 02:33:37;;;;;;;0.85;0.85;;;9.20;99.90;;;;;;5031980;28;20044;-72
2022/09/22 02:36:13;;;;;;;2.65;1.20;;;9.20;99.90;;;;;;5031960;28;20507;-71
2022/09/22 02:38:55;;;;;;;1.20;0.93;;;9.10;99.90;;;;;;5032028;28;20037;-72
2022/09/22 02:41:31;;;;;;;0.40;0.40;;;9.10;99.90;;;;;;5031996;28;20013;-71
2022/09/22 02:44:05;;;;;;;0.55;0.55;;;9.00;99.90;;;;;;5032062;28;20068;-70
2022/09/22 02:46:40;;;;;;;0.20;0.20;;;9.00;99.90;;;;;;5032064;28;20041;-70
2022/09/22 02:49:10;;;;;;;0.65;0.65;;;8.90;99.90;;;;;;5030486;28;20064;-71
2022/09/22 02:51:36;;;;;;;0.60;0.60;;;9.00;99.90;;;;;;5031419;28;20508;-70
2022/09/22 02:54:02;;;;;;;0.40;0.40;;;8.90;99.90;;;;;;5031617;28;20045;-71
2022/09/22 02:56:28;;;;;;;1.90;1.80;;;8.80;99.90;;;;;;5031624;28;20553;-71
2022/09/22 02:58:53;;;;;;;0.40;0.40;;;8.90;99.90;;;;;;5030248;28;20120;-71
2022/09/22 03:01:19;;;;;;;0.43;0.43;;;8.80;99.90;;;;;;5031699;28;20022;-71
2022/09/22 03:03:44;;;;;;;0.47;0.47;;;8.80;99.90;;;;;;5031459;28;20049;-71
2022/09/22 03:06:10;;;;;;;0.40;0.40;;;8.80;99.90;;;;;;5031765;28;20085;-71
2022/09/22 03:08:36;;;;;;;0.30;0.30;;;8.80;99.90;;;;;;5030079;28;20048;-71
2022/09/22 03:11:01;;;;;;;0.40;0.40;;;8.90;99.90;;;;;;5031826;28;20060;-70
2022/09/22 03:13:27;;;;;;;1.20;1.13;;;8.90;99.90;;;;;;5031241;28;20361;-70
2022/09/22 03:15:53;;;;;;;0.43;0.43;;;8.90;99.90;;;;;;5031204;28;20080;-71
2022/09/22 03:18:18;;;;;;;0.60;0.60;;;9.00;99.90;;;;;;5030175;28;20018;-70
2022/09/22 03:20:44;;;;;;;0.93;0.93;;;8.90;99.90;;;;;;5029897;28;20053;-71
2022/09/22 03:23:09;;;;;;;0.77;0.77;;;8.90;99.90;;;;;;5031251;28;20064;-70
2022/09/22 03:25:35;;;;;;;0.30;0.30;;;8.90;99.90;;;;;;5031373;28;20056;-71
2022/09/22 03:28:01;;;;;;;1.63;1.53;;;8.80;99.90;;;;;;5030202;28;20508;-71
2022/09/22 03:30:27;;;;;;;1.23;1.07;;;8.90;99.90;;;;;;5031434;28;20034;-71
2022/09/22 03:32:52;;;;;;;1.40;0.80;;;8.90;99.90;;;;;;5031328;28;20026;-71
2022/09/22 03:35:18;;;;;;;0.70;0.57;;;8.80;99.90;;;;;;5031441;28;20389;-70
2022/09/22 03:37:45;;;;;;;1.23;1.13;;;8.80;99.90;;;;;;5031118;28;20013;-71
2022/09/22 03:40:10;;;;;;;;;;;8.90;99.90;;;;;;5031764;28;20156;-70
2022/09/22 03:42:36;;;;;;;0.40;0.40;;;8.90;99.90;;;;;;5030789;28;20007;-71
2022/09/22 03:45:04;;;;;;;0.40;0.40;;;8.90;99.90;;;;;;5029544;28;20470;-71
2022/09/22 03:47:30;;;;;;;0.40;0.40;;;8.90;99.90;;;;;;5030668;28;20120;-71
2022/09/22 03:49:55;;;;;;;0.30;0.30;;;8.80;99.90;;;;;;5030985;28;20068;-71
2022/09/22 03:52:21;;;;;;;1.00;1.00;;;8.90;99.90;;;;;;5030958;28;20021;-71
2022/09/22 03:54:47;;;;;;;1.38;1.27;;;8.90;99.90;;;;;;5030757;28;20083;-71
2022/09/22 03:57:13;;;;;;;0.40;0.40;;;8.90;99.90;;;;;;5030581;28;20026;-72
2022/09/22 03:59:38;;;;;;;0.40;0.40;;;8.90;99.90;;;;;;5030481;28;20064;-71
2022/09/22 04:02:04;;;;;;;1.77;1.43;;;8.90;99.90;;;;;;5030700;28;20032;-71
2022/09/22 04:04:31;;;;;;;1.37;1.27;;;10.10;99.90;;;;;;5030252;28;20049;-72
2022/09/22 04:06:57;;;;;;;0.60;0.60;;;8.80;99.90;;;;;;5028936;28;20029;-72
2022/09/22 04:09:22;;;;;;;1.07;1.07;;;8.80;99.90;;;;;;5030645;28;20037;-70
2022/09/22 04:11:48;;;;;;;0.67;0.67;;;8.90;99.90;;;;;;5030267;28;20030;-70
2022/09/22 04:14:13;;;;;;;0.93;0.93;;;8.90;99.90;;;;;;5030393;28;20033;-71
2022/09/22 04:16:41;;;;;;;2.23;1.27;;;9.00;99.90;;;;;;5030289;28;20029;-72
2022/09/22 04:19:07;;;;;;;1.52;1.42;;;8.90;99.90;;;;;;5030413;28;20026;-70
2022/09/22 04:21:33;;;;;;;0.95;0.90;;;8.90;99.90;;;;;;5030149;28;20033;-70
2022/09/22 04:23:58;;;;;;;1.70;1.23;;;8.90;99.90;;;;;;5030413;28;20378;-71
2022/09/22 04:26:24;;;;;;;1.40;1.30;;;8.90;99.90;;;;;;5030187;28;20050;-72
2022/09/22 04:28:50;;;;;;;1.00;1.00;;;8.90;99.90;;;;;;5030417;28;20051;-70
2022/09/22 04:31:15;;;;;;;0.40;0.40;;;8.80;99.90;;;;;;5029934;28;20440;-71
2022/09/22 04:33:41;;;;;;;0.80;0.80;;;8.80;99.90;;;;;;5029809;28;20042;-69
2022/09/22 04:36:07;;;;;;;1.43;1.33;;;8.80;99.90;;;;;;5030117;28;20462;-71
2022/09/22 04:38:32;;;;;;;0.70;0.70;;;8.80;99.90;;;;;;5030088;28;20036;-71
2022/09/22 04:40:58;;;;;;;0.47;0.47;;;8.70;99.90;;;;;;5029692;28;20108;-70
2022/09/22 04:43:23;;;;;;;1.77;1.67;;;8.70;99.90;;;;;;5029866;28;20032;-70
2022/09/22 04:45:49;;;;;;;0.67;0.67;;;8.70;99.90;;;;;;5028455;28;20024;-72
2022/09/22 04:48:15;;;;;;;0.50;0.50;;;8.70;99.90;;;;;;5029639;28;20497;-71
2022/09/22 04:50:41;;;;;;;8.27;3.65;;;8.70;99.90;;;;;;5028209;28;20049;-71
2022/09/22 04:53:06;;;;;;;0.67;0.67;;;8.70;99.90;;;;;;5028382;28;20115;-71
2022/09/22 04:55:32;;;;;;;1.27;1.23;;;8.80;99.90;;;;;;5029285;28;20029;-71
2022/09/22 04:57:58;;;;;;;0.93;0.93;;;8.80;99.90;;;;;;5029488;28;20030;-71
2022/09/22 05:00:26;;;;;;;2.43;2.27;;;8.90;99.90;;;;;;5028410;28;20041;-70
2022/09/22 05:02:52;;;;;;;1.25;1.15;;;8.80;99.90;;;;;;5029425;28;20483;-71
2022/09/22 05:05:18;;;;;;;0.50;0.50;;;8.80;99.90;;;;;;5029553;28;20050;-71
2022/09/22 05:07:46;;;;;;;0.70;0.70;;;8.80;99.90;;;;;;5029504;28;20096;-71
2022/09/22 05:10:19;;;;;;;0.63;0.63;;;8.90;99.90;;;;;;5029948;28;20039;-71
2022/09/22 05:12:45;;;;;;;1.90;1.67;;;8.80;99.90;;;;;;5028453;28;20083;-72
2022/09/22 05:15:13;;;;;;;0.70;0.70;;;8.80;99.90;;;;;;5029878;28;20468;-71
2022/09/22 05:17:45;;;;;;;0.95;0.95;;;8.70;99.90;;;;;;5029351;28;20541;-72
2022/09/22 05:20:11;;;;;;;1.50;0.60;;;8.70;99.90;;;;;;5029749;28;20033;-71
2022/09/22 05:22:41;;;;;;;1.87;1.77;;;8.70;99.90;;;;;;5028351;28;20045;-72
2022/09/22 05:25:12;;;;;;;0.57;0.57;;;8.70;99.90;;;;;;5029803;28;20037;-71
2022/09/22 05:27:55;;;;;;;0.77;0.77;;;8.80;99.90;;;;;;5027835;28;20060;-72
2022/09/22 05:30:23;;;;;;;1.30;1.25;;;8.80;99.90;;;;;;5029680;28;20409;-71
2022/09/22 05:32:49;;;;;;;1.25;1.15;;;8.80;99.90;;;;;;5029042;28;20037;-72
2022/09/22 05:35:18;;;;;;;1.27;1.20;;;8.80;99.90;;;;;;5029471;28;20030;-72
2022/09/22 05:37:45;;;;;;;1.75;1.65;;;8.80;99.90;;;;;;5029129;28;20033;-72
2022/09/22 05:40:12;;;;;;;0.55;0.55;;;8.80;99.90;;;;;;5029208;28;20041;-71
2022/09/22 05:42:48;;;;;;;1.27;1.17;;;8.80;99.90;;;;;;5029319;28;20469;-71
2022/09/22 05:45:15;;;;;;;0.45;0.45;;;8.80;99.90;;;;;;5027879;28;20248;-72
2022/09/22 05:47:41;;;;;;;;;;;8.90;99.90;;;;;;5029502;28;20036;-71
2022/09/22 05:50:09;;;;;;;0.47;0.47;;;8.90;99.90;;;;;;5029516;28;20353;-71
2022/09/22 05:52:34;;;;;;;0.95;0.95;;;8.90;99.90;;;;;;5032784;28;20495;-70
2022/09/22 05:55:00;;;;;;;0.77;0.77;;;8.90;99.90;;;;;;5032676;28;20063;-71
2022/09/22 05:57:26;;;;;;;0.30;0.30;;;8.90;99.90;;;;;;5032606;28;20025;-71
2022/09/22 05:59:53;;;;;;;1.17;0.88;;;9.00;99.90;;;;;;5031440;28;20037;-71
2022/09/22 06:02:18;;;;;;;1.77;1.60;;;8.90;99.90;;;;;;5032623;28;20120;-71
2022/09/22 06:04:44;;;;;;;3.70;1.57;;;9.00;99.90;;;;;;5031020;28;20169;-72
2022/09/22 06:07:10;;;;;;;1.90;1.80;;;9.00;99.90;;;;;;5032519;28;20393;-70
2022/09/22 06:09:36;;;;;;;0.47;0.47;;;9.10;99.90;;;;;;5032458;28;20414;-70
2022/09/22 06:12:02;;;;;;;1.03;1.03;;;9.10;99.90;;;;;;5032597;28;20037;-72
2022/09/22 06:14:27;;;;;;;8.77;1.03;;;9.20;99.90;;;;;;5032649;28;20076;-72
2022/09/22 06:16:53;;;;;;;0.40;0.40;;;9.20;99.90;;;;;;5032438;28;20056;-72
2022/09/22 06:19:19;;;;;;;0.77;0.77;;;9.30;99.90;;;;;;5032393;28;20037;-71
2022/09/22 06:21:44;;;;;;;0.47;0.47;;;9.30;99.90;;;;;;5032367;28;20274;-72
2022/09/22 06:24:10;;;;;;;0.70;0.70;;;9.40;99.90;;;;;;5032662;28;20075;-70
2022/09/22 06:26:36;;;;;;;1.33;1.27;;;9.40;99.90;;;;;;5031337;28;20095;-72
2022/09/22 06:29:01;;;;;;;0.83;0.83;;;9.40;99.90;;;;;;5032159;28;20520;-72
2022/09/22 06:31:27;;;;;;;2.87;2.27;;;9.40;99.90;;;;;;5030616;28;20480;-71
2022/09/22 06:33:53;;;;;;;1.63;1.27;;;9.50;99.90;;;;;;5031993;28;20355;-71
2022/09/22 06:36:31;;;;;;;0.83;0.83;;;9.40;99.90;;;;;;5030613;28;20029;-71
2022/09/22 06:38:57;;;;;;;1.45;1.20;;;9.40;99.90;;;;;;5032147;28;20033;-72
2022/09/22 06:41:27;;;;;;;1.48;1.38;;;9.40;99.90;;;;;;5030448;28;20550;-71
2022/09/22 06:43:56;;;;;;;0.82;0.82;;;9.40;99.90;;;;;;5030483;28;20053;-71
2022/09/22 06:46:27;;;;;;;1.40;1.30;;;9.50;99.90;;;;;;5032096;28;20108;-70
2022/09/22 06:48:57;;;;;;;0.65;0.65;;;9.50;99.90;;;;;;5031550;28;20532;-71
2022/09/22 06:51:26;;;;;;;1.25;1.15;;;9.60;99.90;;;;;;5032018;28;20032;-71
2022/09/22 06:53:56;;;;;;;1.08;1.08;;;9.70;99.90;;;;;;5030257;28;20484;-71
2022/09/22 06:56:26;;;;;;;0.95;0.95;;;9.70;99.90;;;;;;5030117;28;20022;-72
2022/09/22 06:58:53;;;;;;;1.13;1.05;;;9.80;99.90;;;;;;5030284;28;20025;-71
2022/09/22 07:01:18;;;;;;;1.33;1.23;;;9.80;99.90;;;;;;5031477;28;20092;-71
2022/09/22 07:03:45;;;;;;;1.07;1.03;;;9.80;99.90;;;;;;5029874;28;20343;-71
2022/09/22 07:06:16;;;;;;;1.30;1.25;;;9.90;99.90;;;;;;5031660;28;20029;-71
2022/09/22 07:08:47;;;;;;;0.35;0.35;;;10.00;99.90;;;;;;5030158;28;20042;-72
2022/09/22 07:11:16;;;;;;;0.65;0.65;;;10.10;99.90;;;;;;5030047;28;20492;-65
2022/09/22 07:13:43;;;;;;;0.85;0.85;;;10.10;99.90;;;;;;5015057;28;20084;-64
2022/09/22 07:16:15;;;;;;;0.75;0.75;;;10.10;99.90;;;;;;5027821;28;20033;-65
2022/09/22 07:19:01;;;;;;;0.52;0.52;;;10.10;99.90;;;;;;5011795;28;20026;-65
2022/09/22 07:21:31;;;;;;;1.05;1.02;;;10.20;99.90;;;;;;5023788;28;20120;-65
2022/09/22 07:23:57;;;;;;;0.85;0.85;;;10.20;99.90;;;;;;5031836;28;20385;-65
2022/09/22 07:26:34;;;;;;;0.30;0.30;;;10.30;99.90;;;;;;5031634;28;20044;-66
2022/09/22 07:29:02;;;;;;;1.70;1.60;;;10.30;99.90;;;;;;5027106;28;20055;-66
2022/09/22 07:31:30;;;;;;;0.38;0.38;;;10.20;99.90;;;;;;5011561;28;20490;-66
2022/09/22 07:34:00;;;;;;;0.30;0.30;;;10.20;99.90;;;;;;5011594;28;20112;-67
2022/09/22 07:36:28;;;;;;;1.38;1.30;;;10.10;99.90;;;;;;5030992;28;20493;-65
2022/09/22 07:38:56;;;;;;;1.20;1.13;;;10.10;99.90;;;;;;5031253;28;20373;-64
2022/09/22 07:41:27;;;;;;;0.70;0.70;;;10.10;99.90;;;;;;5031261;28;20037;-66
2022/09/22 07:45:11;;;;;;;0.68;0.68;;;10.20;99.90;;;;;;5031353;28;20033;-65
2022/09/22 07:46:43;;;;;;;0.55;0.55;;;10.20;99.90;;;;;;5030513;28;20087;-65
2022/09/22 07:49:09;;;;;;;0.95;0.95;;;10.20;99.90;;;;;;5030976;28;20041;-65
2022/09/22 07:51:36;;;;;;;0.57;0.57;;;10.40;99.90;;;;;;5030713;28;20513;-65
2022/09/22 07:54:07;;;;;;;0.65;0.65;;;10.70;99.90;;;;;;5031071;28;20362;-65
2022/09/22 07:56:34;;;;;;;0.88;0.88;;;10.80;99.90;;;;;;5030705;28;20029;-66
2022/09/22 07:59:03;;;;;;;1.83;1.33;;;10.80;99.90;;;;;;5030776;28;20041;-65
2022/09/22 08:01:31;;;;;;;1.55;1.38;;;10.80;99.90;;;;;;5031329;28;20022;-65
2022/09/22 08:03:57;;;;;;;1.00;1.00;;;10.80;99.90;;;;;;5030685;28;20061;-64
2022/09/22 08:06:22;;;;;;;0.70;0.70;;;10.80;99.90;;;;;;5013218;28;20036;-64
2022/09/22 08:08:52;;;;;;;1.07;1.07;;;10.80;99.90;;;;;;5029643;28;20116;-65
2022/09/22 08:11:20;;;;;;;1.63;0.88;;;10.80;99.90;;;;;;5029959;28;20389;-66
2022/09/22 08:13:58;;;;;;;0.40;0.40;;;10.80;99.90;;;;;;5022741;28;20092;-66
2022/09/22 08:16:29;;;;;;;0.45;0.45;;;10.80;99.90;;;;;;5010796;28;20030;-66
2022/09/22 08:18:56;;;;;;;0.60;0.60;;;10.80;99.90;;;;;;5018846;28;20030;-65
2022/09/22 08:21:23;;;;;;;0.35;0.35;;;10.90;99.90;;;;;;5025650;28;20037;-64
2022/09/22 08:23:51;;;;;;;0.82;0.82;;;10.90;99.90;;;;;;5030134;28;20065;-63
2022/09/22 08:26:17;;;;;;;0.40;0.40;;;11.00;99.90;;;;;;5030302;28;20021;-65
2022/09/22 08:28:43;;;;;;;0.60;0.60;;;11.10;99.90;;;;;;5030122;28;20037;-65
2022/09/22 08:31:13;;;;;;;0.33;0.33;;;11.20;99.90;;;;;;5030303;28;20438;-67
2022/09/22 08:33:40;;;;;;;1.23;1.13;;;11.20;99.90;;;;;;5028652;28;20033;-65
2022/09/22 08:36:06;;;;;;;0.40;0.40;;;11.30;99.90;;;;;;5030006;28;20040;-65
2022/09/22 08:38:34;;;;;;;0.57;0.57;;;11.40;99.90;;;;;;5030652;28;20045;-65
2022/09/22 08:41:13;;;;;;;0.40;0.40;;;11.50;99.90;;;;;;5029942;28;20032;-64
2022/09/22 08:43:54;;;;;;;0.50;0.50;;;11.40;99.90;;;;;;5029572;28;20044;-64
2022/09/22 08:46:32;;;;;;;0.73;0.73;;;11.40;99.90;;;;;;5029595;28;20040;-65
2022/09/22 08:52:01;;;;;;;0.43;0.43;;;11.40;99.90;;;;;;5030735;28;20076;-63
2022/09/22 08:54:34;;;;;;;0.93;0.93;;;11.30;99.90;;;;;;5029865;28;20042;-66
2022/09/22 08:57:50;;;;;;;0.93;0.93;;;11.50;99.90;;;;;;5029660;28;20132;-65
2022/09/22 09:00:19;;;;;;;0.88;0.88;;;11.50;99.90;;;;;;5014909;28;20555;-66
2022/09/22 09:03:06;;;;;;;0.60;0.60;;;11.50;99.90;;;;;;5023911;28;20025;-66
2022/09/22 09:05:50;;;;;;;0.88;0.88;;;11.40;99.90;;;;;;5029702;28;20072;-65
2022/09/22 09:08:43;;;;;;;1.17;1.15;;;11.50;99.90;;;;;;5009423;28;20405;-66
2022/09/22 09:11:42;;;;;;;0.65;0.65;;;11.70;99.90;;;;;;5059703;28;20036;-65
2022/09/22 09:14:36;;;;;;;1.17;1.08;;;11.70;99.90;;;;;;5036792;28;20049;-64
2022/09/22 09:17:08;;;;;;;1.38;1.27;;;11.80;99.90;;;;;;5036505;28;20022;-66
2022/09/22 09:19:49;;;;;;;0.68;0.68;;;11.70;99.90;;;;;;5033386;28;20095;-65
2022/09/22 09:22:24;;;;;;;22.20;2.25;;;11.70;99.90;;;;;;5029434;28;20076;-66
2022/09/22 09:25:14;;;;;;;0.55;0.55;;;11.60;99.90;;;;;;5048179;28;20041;-66
2022/09/22 09:27:43;;;;;;;0.73;0.68;;;11.60;99.90;;;;;;5044141;28;20033;-64
2022/09/22 09:30:18;;;;;;;0.40;0.40;;;11.60;99.90;;;;;;5035105;28;20037;-65
2022/09/22 09:32:49;;;;;;;1.13;1.02;;;11.60;99.90;;;;;;5030611;28;20053;-66
2022/09/22 09:35:19;;;;;;;0.32;0.32;;;11.60;99.90;;;;;;5018495;28;20149;-66
2022/09/22 09:37:46;;;;;;;0.30;0.30;;;11.70;99.90;;;;;;5013212;28;20017;-66
2022/09/22 09:40:18;;;;;;;0.30;0.30;;;11.70;99.90;;;;;;5013275;28;20034;-67
2022/09/22 09:42:46;;;;;;;1.17;0.73;;;11.90;99.90;;;;;;5013204;28;20029;-64
2022/09/22 09:45:14;;;;;;;0.30;0.30;;;11.80;99.90;;;;;;5013380;28;20524;-64
2022/09/22 09:47:57;;;;;;;0.60;0.60;;;11.90;99.90;;;;;;5012702;28;20125;-64
2022/09/22 09:50:30;;;;;;;0.63;0.63;;;11.90;99.90;;;;;;5012610;28;20045;-66
2022/09/22 09:53:00;;;;;;;1.33;1.23;;;11.90;99.90;;;;;;5013090;28;20470;-65
2022/09/22 09:55:26;;;;;;;0.30;0.30;;;11.90;99.90;;;;;;5013146;28;20522;-64
2022/09/22 09:58:10;;;;;;;0.70;0.70;;;11.80;99.90;;;;;;5017323;28;20026;-64
2022/09/22 10:01:08;;;;;;;1.35;1.27;;;11.90;99.90;;;;;;5030824;28;20030;-64
2022/09/22 10:03:40;;;;;;;0.30;0.30;;;11.80;99.90;;;;;;5031160;28;20049;-66
2022/09/22 10:06:09;;;;;;;0.45;0.45;;;11.80;99.90;;;;;;5035761;28;20025;-64
2022/09/22 10:08:50;;;;;;;0.88;0.88;;;11.70;99.90;;;;;;5039350;28;20029;-64
2022/09/22 10:11:26;;;;;;;0.32;0.32;;;11.70;99.90;;;;;;5032620;28;20465;-69
2022/09/22 10:13:55;;;;;;;0.30;0.30;;;11.60;99.90;;;;;;5022580;28;20044;-69
2022/09/22 10:16:23;;;;;;;0.43;0.43;;;11.70;99.90;;;;;;5039533;28;20025;-69
2022/09/22 10:19:09;;;;;;;0.52;0.52;;;12.00;99.90;;;;;;5026856;28;20041;-69
2022/09/22 10:21:36;;;;;;;1.42;1.33;;;11.90;99.90;;;;;;5027472;28;20486;-68
2022/09/22 10:24:21;;;;;;;0.25;0.25;;;11.90;99.90;;;;;;5032011;28;20485;-68
2022/09/22 10:26:56;;;;;;;0.77;0.77;;;12.00;99.90;;;;;;5031103;28;20133;-69
2022/09/22 10:29:23;;;;;;;0.45;0.45;;;11.90;99.90;;;;;;5032225;28;20112;-69
2022/09/22 10:32:12;;;;;;;0.47;0.47;;;11.80;99.90;;;;;;5031343;28;20064;-69
2022/09/22 10:34:39;;;;;;;0.68;0.68;;;11.60;99.90;;;;;;5031897;28;20071;-70
2022/09/22 10:37:18;;;;;;;0.95;0.95;;;11.40;99.90;;;;;;5031232;28;20096;-70
2022/09/22 10:40:09;;;;;;;0.40;0.40;;;11.30;99.90;;;;;;5031789;28;20033;-69
2022/09/22 10:42:39;;;;;;;0.90;0.82;;;11.20;99.90;;;;;;5029203;28;20041;-69
2022/09/22 10:45:09;;;;;;;0.68;0.68;;;11.10;99.90;;;;;;5031545;28;20037;-68
2022/09/22 10:47:47;;;;;;;0.55;0.55;;;11.10;99.90;;;;;;5024565;28;20567;-70
2022/09/22 10:50:58;;;;;;;1.00;1.00;;;11.10;99.90;;;;;;5033212;28;20136;-70
2022/09/22 10:53:52;;;;;;;0.60;0.60;;;11.00;99.90;;;;;;5008146;28;20041;-69
2022/09/22 10:56:36;;;;;;;0.82;0.82;;;11.00;99.90;;;;;;5015178;28;20092;-70
2022/09/22 10:59:17;;;;;;;0.30;0.30;;;11.00;99.90;;;;;;5011334;28;20545;-69
2022/09/22 11:02:06;;;;;;;0.85;0.85;;;11.10;99.90;;;;;;5012567;28;20022;-70
2022/09/22 11:04:45;;;;;;;0.57;0.57;;;11.10;99.90;;;;;;5021670;28;20459;-69
2022/09/22 11:13:53;;;;;;;0.30;0.30;;;11.20;99.90;;;;;;5018418;28;20453;-69
2022/09/22 11:16:44;;;;;;;0.30;0.30;;;11.20;99.90;;;;;;5011768;28;20050;-69
2022/09/22 11:19:34;;;;;;;0.45;0.45;;;11.30;99.90;;;;;;5021627;28;20068;-71
2022/09/22 11:22:31;;;;;;;0.38;0.38;;;11.30;99.90;;;;;;5029851;28;20401;-69
2022/09/22 11:25:06;;;;;;;0.30;0.30;;;11.30;99.90;;;;;;5031705;28;20033;-69
2022/09/22 11:28:07;;;;;;;0.40;0.40;;;11.30;99.90;;;;;;5021558;28;20072;-69
2022/09/22 11:30:45;;;;;;;0.30;0.30;;;11.40;99.90;;;;;;5011200;28;20030;-70
2022/09/22 11:33:34;;;;;;;0.43;0.43;;;11.40;99.90;;;;;;5012039;28;20037;-70
2022/09/22 11:36:40;;;;;;;0.30;0.30;;;11.40;99.90;;;;;;5010941;28;20410;-70
2022/09/22 11:39:27;;;;;;;0.40;0.40;;;11.50;99.90;;;;;;5011119;28;20441;-69
2022/09/22 11:42:27;;;;;;;0.43;0.43;;;11.60;99.90;;;;;;5012586;28;20036;-69
2022/09/22 11:45:02;;;;;;;0.32;0.32;;;11.70;99.90;;;;;;5030805;28;20083;-69
2022/09/22 11:47:54;;;;;;;0.45;0.45;;;11.80;99.90;;;;;;5031246;28;20476;-70
2022/09/22 11:50:33;;;;;;;0.25;0.25;;;11.90;99.90;;;;;;5008570;28;20054;-69
2022/09/22 11:53:04;;;;;;;1.05;0.73;;;11.90;99.90;;;;;;5011245;28;20414;-69
2022/09/22 11:55:39;;;;;;;0.77;0.77;;;11.90;99.90;;;;;;5009738;28;20030;-69
2022/09/22 11:58:11;;;;;;;1.00;1.00;;;11.80;99.90;;;;;;5011376;28;20546;-69
2022/09/22 12:01:07;;;;;;;1.30;1.20;;;11.80;99.90;;;;;;5010727;28;20022;-69
2022/09/22 12:04:13;;;;;;;0.65;0.65;;;11.70;99.90;;;;;;5010382;28;20360;-70
2022/09/22 12:06:43;;;;;;;0.57;0.57;;;11.60;99.90;;;;;;5010466;28;20048;-70
2022/09/22 12:09:20;;;;;;;0.25;0.25;;;11.60;99.90;;;;;;5015861;28;20033;-70
2022/09/22 12:11:46;;;;;;;0.30;0.30;;;11.60;99.90;;;;;;5024301;28;20045;-70
2022/09/22 12:14:14;;;;;;;0.30;0.30;;;11.60;99.90;;;;;;5010922;28;20042;-69
2022/09/22 12:16:51;;;;;;;0.30;0.30;;;11.70;99.90;;;;;;5010584;28;20022;-69
2022/09/22 12:19:25;;;;;;;1.95;1.10;;;11.70;99.90;;;;;;5011362;28;20026;-69
2022/09/22 12:22:14;;;;;;;0.30;0.30;;;11.70;99.90;;;;;;5010504;28;20492;-69
2022/09/22 12:24:39;;;;;;;5.28;1.00;;;11.70;99.90;;;;;;5010838;28;20117;-69
2022/09/22 12:27:21;;;;;;;2.27;1.90;;;11.70;99.90;;;;;;5010414;28;20101;-70
2022/09/22 12:29:58;;;;;;;0.73;0.73;;;11.70;99.90;;;;;;5015453;28;20017;-70
2022/09/22 12:32:34;;;;;;;0.95;0.95;;;11.70;99.90;;;;;;5020049;28;20421;-70
2022/09/22 12:35:00;;;;;;;0.55;0.55;;;10.30;99.90;;;;;;5019221;28;20468;-70
2022/09/22 12:37:37;;;;;;;0.30;0.30;;;11.70;99.90;;;;;;5029862;28;20017;-69
2022/09/22 12:40:31;;;;;;;0.40;0.40;;;11.70;99.90;;;;;;5026169;28;20401;-69
2022/09/22 12:42:58;;;;;;;0.40;0.40;;;11.80;99.90;;;;;;5009859;28;20030;-65
2022/09/22 12:45:34;;;;;;;0.43;0.43;;;11.90;99.90;;;;;;5010753;28;20038;-64
2022/09/22 12:48:10;;;;;;;0.35;0.35;;;12.00;99.90;;;;;;5029688;28;20436;-63
2022/09/22 12:50:39;;;;;;;0.30;0.30;;;12.10;99.90;;;;;;5028952;28;20037;-66
2022/09/22 12:53:11;;;;;;;0.20;0.20;;;12.10;99.90;;;;;;5030152;28;20033;-64
2022/09/22 12:55:37;;;;;;;0.93;0.93;;;12.20;99.90;;;;;;5029859;28;20056;-64
2022/09/22 12:58:22;;;;;;;0.30;0.30;;;12.20;99.90;;;;;;5030235;28;20452;-65
2022/09/22 13:00:49;;;;;;;0.30;0.30;;;12.20;99.90;;;;;;5012441;28;20038;-65
2022/09/22 13:03:24;;;;;;;0.38;0.38;;;12.20;99.90;;;;;;5010004;28;20037;-64
2022/09/22 13:05:56;;;;;;;0.70;0.70;;;12.20;99.90;;;;;;5023784;28;20041;-66
2022/09/22 13:08:35;;;;;;;0.43;0.43;;;12.20;99.90;;;;;;5029649;28;20026;-65
2022/09/22 13:11:06;;;;;;;0.73;0.73;;;12.20;99.90;;;;;;5024589;28;20478;-64
2022/09/22 13:13:36;;;;;;;0.30;0.30;;;12.20;99.90;;;;;;5011180;28;20034;-64
2022/09/22 13:16:02;;;;;;;0.47;0.47;;;;;;;;;;5010264;28;20413;-65
2022/09/22 13:18:35;;;;;;;0.40;0.40;;;13.00;99.90;;;;;;5014995;28;20116;-63
2022/09/22 13:21:12;;;;;;;0.32;0.32;;;12.00;99.90;;;;;;5029606;28;20425;-65
2022/09/22 13:23:38;;;;;;;1.42;1.33;;;;;;;;;;5029822;28;20520;-64
2022/09/22 13:26:12;;;;;;;2.00;0.80;;;11.60;99.90;;;;;;5029642;28;20079;-66
2022/09/22 13:28:38;;;;;;;0.30;0.30;;;;;;;;;;5027486;28;20037;-64
2022/09/22 13:31:16;;;;;;;0.98;0.68;;;12.30;99.90;;;;;;5029440;28;20469;-64
2022/09/22 13:33:42;;;;;;;2.85;1.10;;;11.80;99.90;;;;;;5027735;28;20049;-64
2022/09/22 13:36:22;;;;;;;0.30;0.30;;;12.10;99.90;;;;;;5029430;28;20061;-65
2022/09/22 13:38:54;;;;;;;0.30;0.30;;;12.10;99.90;;;;;;5013575;28;20041;-64
2022/09/22 13:41:32;;;;;;;0.30;0.30;;;12.30;99.90;;;;;;5009691;28;20171;-65
2022/09/22 13:44:09;;;;;;;0.30;0.30;;;12.20;99.90;;;;;;5009981;28;20041;-63
2022/09/22 13:46:35;;;;;;;0.45;0.45;;;;;;;;;;5009712;28;20026;-64
2022/09/22 13:49:01;;;;;;;0.57;0.57;;;12.40;99.90;;;;;;5010316;28;20064;-64
2022/09/22 13:51:26;;;;;;;0.70;0.70;;;12.20;99.90;;;;;;5010148;28;20038;-63
2022/09/22 13:53:54;;;;;;;0.40;0.40;;;12.10;99.90;;;;;;5009413;28;20038;-67
2022/09/22 13:56:22;;;;;;;0.30;0.30;;;12.30;99.90;;;;;;5010821;28;20079;-65
2022/09/22 13:58:49;;;;;;;0.30;0.30;;;;;;;;;;5009345;28;20045;-64
2022/09/22 14:01:19;;;;;;;0.30;0.30;;;;;;;;;;5009404;28;20052;-67
